createdAt,value
2023-02-03T00:00:20.146Z,92.22
2023-02-03T00:02:46.474Z,91.56
2023-02-03T00:05:12.798Z,91.75
2023-02-03T00:07:40.213Z,92.07
2023-02-03T00:10:07.770Z,91.87
2023-02-03T00:12:34.705Z,91.56
2023-02-03T00:15:01.177Z,91.23
2023-02-03T00:17:27.735Z,91.66
2023-02-03T00:19:54.120Z,91.69
2023-02-03T00:22:20.445Z,91.75
2023-02-03T00:24:46.818Z,91.07
2023-02-03T00:27:14.187Z,91.25
2023-02-03T00:29:40.551Z,91.40
2023-02-03T00:32:07.044Z,91.25
2023-02-03T00:34:33.406Z,90.94
2023-02-03T00:36:59.824Z,91.15
2023-02-03T00:39:26.274Z,91.60
2023-02-03T00:41:52.637Z,91.20
2023-02-03T00:44:18.992Z,91.45
2023-02-03T00:46:45.437Z,91.38
2023-02-03T00:49:11.792Z,90.74
2023-02-03T00:51:38.166Z,91.44
2023-02-03T00:54:04.509Z,91.55
2023-02-03T00:56:30.889Z,91.39
2023-02-03T00:58:57.565Z,91.18
2023-02-03T01:01:23.986Z,91.33
2023-02-03T01:03:50.531Z,91.39
2023-02-03T01:06:20.268Z,90.98
2023-02-03T01:08:47.327Z,91.08
2023-02-03T01:11:17.255Z,91.24
2023-02-03T01:13:44.881Z,91.20
2023-02-03T01:16:14.242Z,91.13
2023-02-03T01:18:41.343Z,90.94
2023-02-03T01:21:10.663Z,90.82
2023-02-03T01:23:38.009Z,90.79
2023-02-03T01:26:10.360Z,90.96
2023-02-03T01:28:37.057Z,91.09
2023-02-03T01:31:09.967Z,91.19
2023-02-03T01:33:36.653Z,91.02
2023-02-03T01:36:03.074Z,90.88
2023-02-03T01:38:29.480Z,91.33
2023-02-03T01:40:55.879Z,91.11
2023-02-03T01:43:37.186Z,91.54
2023-02-03T01:46:27.140Z,91.21
2023-02-03T01:48:58.278Z,90.90
2023-02-03T01:51:24.728Z,91.00
2023-02-03T01:53:53.177Z,90.98
2023-02-03T01:56:20.086Z,91.16
2023-02-03T01:58:47.523Z,91.15
2023-02-03T02:01:14.369Z,91.57
2023-02-03T02:03:54.468Z,92.00
2023-02-03T02:06:20.924Z,91.18
2023-02-03T02:08:50.702Z,91.01
2023-02-03T02:11:18.635Z,91.06
2023-02-03T02:13:46.558Z,90.79
2023-02-03T02:16:41.265Z,91.04
2023-02-03T02:19:16.746Z,90.82
2023-02-03T02:22:28.103Z,91.04
2023-02-03T02:25:25.556Z,90.84
2023-02-03T02:28:04.128Z,90.77
2023-02-03T02:31:02.857Z,90.46
2023-02-03T02:34:03.787Z,90.52
2023-02-03T02:36:43.631Z,90.30
2023-02-03T02:39:20.090Z,90.25
2023-02-03T02:41:59.543Z,90.51
2023-02-03T02:44:32.863Z,90.12
2023-02-03T02:47:06.006Z,90.11
2023-02-03T02:49:44.734Z,90.48
2023-02-03T02:52:14.734Z,90.30
2023-02-03T02:54:44.550Z,89.33
2023-02-03T02:57:14.199Z,89.20
2023-02-03T02:59:40.575Z,89.58
2023-02-03T03:02:07.111Z,89.66
2023-02-03T03:04:35.112Z,89.47
2023-02-03T03:07:16.229Z,89.19
2023-02-03T03:09:52.487Z,89.22
2023-02-03T03:12:27.872Z,89.04
2023-02-03T03:14:59.829Z,89.13
2023-02-03T03:17:34.612Z,88.81
2023-02-03T03:20:08.036Z,88.93
2023-02-03T03:22:41.731Z,89.30
2023-02-03T03:25:16.636Z,89.36
2023-02-03T03:27:49.618Z,89.34
2023-02-03T03:30:25.746Z,89.36
2023-02-03T03:32:52.865Z,89.45
2023-02-03T03:35:19.636Z,88.86
2023-02-03T03:38:10.427Z,89.34
2023-02-03T03:40:49.646Z,89.38
2023-02-03T03:43:20.391Z,89.69
2023-02-03T03:45:55.191Z,89.16
2023-02-03T03:48:30.058Z,89.54
2023-02-03T03:51:02.481Z,88.77
2023-02-03T03:53:32.039Z,89.39
2023-02-03T03:56:01.576Z,88.67
2023-02-03T03:58:30.780Z,88.77
2023-02-03T04:01:01.554Z,89.02
2023-02-03T04:03:33.193Z,88.87
2023-02-03T04:05:59.560Z,88.91
2023-02-03T04:08:26.026Z,88.64
2023-02-03T04:10:52.365Z,88.83
2023-02-03T04:13:20.461Z,88.80
2023-02-03T04:15:46.992Z,89.00
2023-02-03T04:18:14.655Z,88.37
2023-02-03T04:20:41.210Z,88.47
2023-02-03T04:23:08.124Z,87.98
2023-02-03T04:25:34.788Z,88.41
2023-02-03T04:28:01.777Z,88.43
2023-02-03T04:30:28.638Z,88.35
2023-02-03T04:32:55.189Z,87.72
2023-02-03T04:35:21.545Z,87.74
2023-02-03T04:37:47.930Z,87.76
2023-02-03T04:40:14.443Z,87.71
2023-02-03T04:42:41.603Z,87.59
2023-02-03T04:45:10.151Z,87.51
2023-02-03T04:47:37.019Z,88.13
2023-02-03T04:50:04.234Z,87.82
2023-02-03T04:52:30.728Z,87.73
2023-02-03T04:54:57.156Z,87.73
2023-02-03T04:57:23.541Z,87.41
2023-02-03T04:59:49.897Z,87.68
2023-02-03T05:02:16.307Z,87.52
2023-02-03T05:04:42.665Z,87.84
2023-02-03T05:07:09.740Z,87.78
2023-02-03T05:09:36.193Z,87.78
2023-02-03T05:12:02.541Z,87.37
2023-02-03T05:14:28.930Z,87.66
2023-02-03T05:16:55.380Z,88.09
2023-02-03T05:19:21.798Z,87.84
2023-02-03T05:21:48.498Z,88.13
2023-02-03T05:24:14.946Z,87.77
2023-02-03T05:26:41.455Z,87.78
2023-02-03T05:29:07.885Z,87.63
2023-02-03T05:31:34.656Z,87.64
2023-02-03T05:34:01.063Z,86.94
2023-02-03T05:36:27.415Z,87.67
2023-02-03T05:38:53.901Z,87.46
2023-02-03T05:41:39.107Z,87.13
2023-02-03T05:44:05.605Z,87.05
2023-02-03T05:46:31.998Z,87.06
2023-02-03T05:48:58.366Z,86.74
2023-02-03T05:51:25.024Z,86.84
2023-02-03T05:53:51.437Z,86.01
2023-02-03T05:56:17.825Z,86.17
2023-02-03T05:58:44.185Z,86.29
2023-02-03T06:01:11.801Z,86.08
2023-02-03T06:03:38.493Z,85.72
2023-02-03T06:06:04.935Z,86.50
2023-02-03T06:08:31.265Z,86.40
2023-02-03T06:11:03.340Z,86.07
2023-02-03T06:13:29.840Z,85.80
2023-02-03T06:15:56.337Z,85.92
2023-02-03T06:18:22.736Z,85.72
2023-02-03T06:20:50.152Z,85.90
2023-02-03T06:23:18.851Z,86.08
2023-02-03T06:25:48.262Z,85.82
2023-02-03T06:28:14.993Z,85.60
2023-02-03T06:30:41.542Z,85.85
2023-02-03T06:33:08.113Z,86.04
2023-02-03T06:35:34.689Z,85.36
2023-02-03T06:38:01.732Z,84.94
2023-02-03T06:40:28.657Z,85.02
2023-02-03T06:42:55.152Z,85.10
2023-02-03T06:45:21.633Z,85.04
2023-02-03T06:47:47.946Z,85.28
2023-02-03T06:50:16.186Z,85.54
2023-02-03T06:52:43.070Z,85.05
2023-02-03T06:55:09.715Z,85.29
2023-02-03T06:57:36.157Z,84.94
2023-02-03T07:00:03.454Z,84.28
2023-02-03T07:02:29.910Z,84.40
2023-02-03T07:04:56.287Z,84.15
2023-02-03T07:07:22.728Z,84.11
2023-02-03T07:09:49.070Z,84.36
2023-02-03T07:12:15.451Z,84.11
2023-02-03T07:14:41.880Z,84.31
2023-02-03T07:17:08.243Z,83.81
2023-02-03T07:19:34.736Z,83.82
2023-02-03T07:22:01.125Z,83.99
2023-02-03T07:24:27.503Z,83.65
2023-02-03T07:26:53.928Z,84.02
2023-02-03T07:29:20.369Z,84.18
2023-02-03T07:31:46.774Z,84.25
2023-02-03T07:34:13.244Z,84.06
2023-02-03T07:36:39.610Z,84.40
2023-02-03T07:39:05.973Z,83.98
2023-02-03T07:41:32.688Z,84.07
2023-02-03T07:43:59.088Z,84.23
2023-02-03T07:46:25.510Z,83.75
2023-02-03T07:48:51.998Z,84.28
2023-02-03T07:51:18.411Z,84.20
2023-02-03T07:53:45.332Z,84.04
2023-02-03T07:56:12.096Z,83.95
2023-02-03T07:58:38.617Z,84.04
2023-02-03T08:01:13.562Z,83.97
2023-02-03T08:03:41.277Z,83.67
2023-02-03T08:06:08.639Z,83.55
2023-02-03T08:08:35.489Z,83.53
2023-02-03T08:11:01.896Z,83.85
2023-02-03T08:13:28.428Z,83.71
2023-02-03T08:15:54.935Z,84.14
2023-02-03T08:18:22.368Z,83.88
2023-02-03T08:20:49.016Z,84.28
2023-02-03T08:23:15.470Z,84.18
2023-02-03T08:25:41.885Z,84.01
2023-02-03T08:28:08.306Z,84.67
2023-02-03T08:30:34.871Z,84.85
2023-02-03T08:33:01.539Z,84.57
2023-02-03T08:35:27.944Z,84.68
2023-02-03T08:37:54.464Z,84.68
2023-02-03T08:40:20.835Z,84.54
2023-02-03T08:42:47.239Z,84.76
2023-02-03T08:45:13.726Z,85.00
2023-02-03T08:47:40.117Z,85.40
2023-02-03T08:50:08.077Z,85.10
2023-02-03T08:52:34.684Z,85.78
2023-02-03T08:55:01.062Z,86.93
2023-02-03T08:57:27.558Z,87.29
2023-02-03T08:59:54.882Z,87.17
2023-02-03T09:02:21.289Z,87.86
2023-02-03T09:04:49.028Z,87.80
2023-02-03T09:07:16.625Z,87.41
2023-02-03T09:09:43.097Z,87.93
2023-02-03T09:12:11.572Z,88.31
2023-02-03T09:14:38.032Z,88.19
2023-02-03T09:17:05.322Z,89.05
2023-02-03T09:19:33.268Z,89.53
2023-02-03T09:22:01.252Z,89.83
2023-02-03T09:24:28.194Z,90.15
2023-02-03T09:26:55.860Z,90.65
2023-02-03T09:29:23.218Z,90.29
2023-02-03T09:31:52.911Z,90.40
2023-02-03T09:34:20.588Z,90.76
2023-02-03T09:36:47.494Z,90.65
2023-02-03T09:39:13.989Z,90.46
2023-02-03T09:41:51.238Z,90.82
2023-02-03T09:44:29.194Z,90.78
2023-02-03T09:47:00.522Z,90.90
2023-02-03T09:49:48.261Z,91.17
2023-02-03T09:52:19.591Z,91.23
2023-02-03T09:55:06.425Z,91.48
2023-02-03T09:57:41.413Z,91.47
2023-02-03T10:00:20.715Z,92.25
2023-02-03T10:03:11.830Z,92.58
2023-02-03T10:06:02.706Z,92.69
2023-02-03T10:09:06.697Z,92.21
2023-02-03T10:11:58.298Z,92.23
2023-02-03T10:14:24.591Z,92.24
2023-02-03T10:17:12.461Z,92.51
2023-02-03T10:19:42.885Z,92.61
2023-02-03T10:22:16.618Z,92.65
2023-02-03T10:25:24.768Z,92.53
2023-02-03T10:27:58.593Z,92.42
2023-02-03T10:30:28.000Z,92.63
2023-02-03T10:33:08.769Z,92.48
2023-02-03T10:35:57.831Z,92.79
2023-02-03T10:38:35.948Z,92.59
2023-02-03T10:41:03.519Z,92.58
2023-02-03T10:43:47.343Z,92.43
2023-02-03T10:46:15.063Z,92.37
2023-02-03T10:48:41.440Z,92.32
2023-02-03T10:51:22.128Z,92.30
2023-02-03T10:53:52.817Z,92.29
2023-02-03T10:56:26.435Z,92.16
2023-02-03T10:58:56.409Z,91.93
2023-02-03T11:01:41.806Z,91.81
2023-02-03T11:04:23.382Z,91.78
2023-02-03T11:06:56.278Z,91.46
2023-02-03T11:09:40.488Z,91.22
2023-02-03T11:12:20.299Z,91.63
2023-02-03T11:14:51.966Z,91.31
2023-02-03T11:17:27.410Z,91.82
2023-02-03T11:20:00.123Z,91.32
2023-02-03T11:22:32.038Z,91.33
2023-02-03T11:25:01.512Z,91.42
2023-02-03T11:27:31.600Z,91.32
2023-02-03T11:30:17.575Z,91.22
2023-02-03T11:32:46.623Z,91.27
2023-02-03T11:35:26.369Z,91.44
2023-02-03T11:37:56.371Z,91.08
2023-02-03T11:40:26.457Z,91.06
2023-02-03T11:42:52.936Z,91.11
2023-02-03T11:45:24.675Z,91.17
2023-02-03T11:48:22.284Z,91.34
2023-02-03T11:51:10.284Z,91.14
2023-02-03T11:54:13.700Z,91.27
2023-02-03T11:57:07.731Z,91.18
2023-02-03T11:59:37.951Z,91.13
2023-02-03T12:02:28.697Z,91.08
2023-02-03T12:05:14.884Z,91.19
2023-02-03T12:07:44.098Z,90.99
2023-02-03T12:10:32.283Z,90.99
2023-02-03T12:13:17.699Z,91.19
2023-02-03T12:15:46.771Z,90.95
2023-02-03T12:18:31.735Z,90.84
2023-02-03T12:21:12.295Z,91.00
2023-02-03T12:24:03.164Z,90.83
2023-02-03T12:26:55.597Z,90.79
2023-02-03T12:29:32.557Z,90.61
2023-02-03T12:32:06.670Z,90.68
2023-02-03T12:34:54.971Z,90.95
2023-02-03T12:37:35.047Z,90.45
2023-02-03T12:40:21.891Z,90.60
2023-02-03T12:42:55.648Z,90.98
2023-02-03T12:45:29.560Z,90.90
2023-02-03T12:48:07.355Z,90.30
2023-02-03T12:50:42.298Z,90.35
2023-02-03T12:53:21.064Z,89.92
2023-02-03T12:55:55.069Z,89.96
2023-02-03T12:58:25.598Z,89.47
2023-02-03T13:01:00.648Z,89.08
2023-02-03T13:03:32.092Z,89.14
2023-02-03T13:06:26.781Z,88.95
2023-02-03T13:09:14.530Z,88.59
2023-02-03T13:11:48.736Z,88.42
2023-02-03T13:14:28.174Z,88.61
2023-02-03T13:17:01.584Z,88.09
2023-02-03T13:19:40.181Z,88.41
2023-02-03T13:22:14.460Z,88.34
2023-02-03T13:24:55.071Z,88.00
2023-02-03T13:27:51.250Z,87.83
2023-02-03T13:30:54.901Z,87.39
2023-02-03T13:33:36.498Z,87.58
2023-02-03T13:36:42.097Z,87.64
2023-02-03T13:39:11.160Z,87.80
2023-02-03T13:42:13.530Z,87.10
2023-02-03T13:44:41.354Z,86.90
2023-02-03T13:47:18.897Z,86.78
2023-02-03T13:49:53.659Z,87.02
2023-02-03T13:52:27.239Z,86.89
2023-02-03T13:54:54.151Z,87.59
2023-02-03T13:57:28.392Z,87.49
2023-02-03T13:59:54.765Z,87.76
2023-02-03T14:02:27.155Z,87.70
2023-02-03T14:04:56.530Z,88.11
2023-02-03T14:07:38.264Z,88.41
2023-02-03T14:10:15.105Z,88.72
2023-02-03T14:12:50.455Z,88.87
2023-02-03T14:15:39.495Z,88.85
2023-02-03T14:18:33.627Z,89.21
2023-02-03T14:21:18.127Z,89.71
2023-02-03T14:23:49.018Z,89.66
2023-02-03T14:26:45.839Z,90.01
2023-02-03T14:29:29.396Z,89.78
2023-02-03T14:32:05.590Z,90.65
2023-02-03T14:34:35.148Z,90.30
2023-02-03T14:37:22.864Z,90.08
2023-02-03T14:40:17.027Z,90.25
2023-02-03T14:43:04.830Z,90.55
2023-02-03T14:46:20.637Z,91.24
2023-02-03T14:49:02.075Z,91.31
2023-02-03T14:51:47.567Z,91.99
2023-02-03T14:54:13.834Z,91.28
2023-02-03T14:57:06.861Z,91.01
2023-02-03T14:59:42.069Z,91.55
2023-02-03T15:02:14.831Z,91.68
2023-02-03T15:04:42.120Z,91.88
2023-02-03T15:07:08.945Z,92.21
2023-02-03T15:09:47.264Z,92.27
2023-02-03T15:12:26.000Z,94.76
2023-02-03T15:14:53.538Z,93.99
2023-02-03T15:17:26.302Z,92.72
2023-02-03T15:19:53.070Z,93.27
2023-02-03T15:22:28.391Z,92.65
2023-02-03T15:24:57.884Z,92.93
2023-02-03T15:27:27.764Z,90.31
2023-02-03T15:29:54.612Z,90.16
2023-02-03T15:32:29.030Z,89.80
2023-02-03T15:34:57.491Z,89.64
2023-02-03T15:37:31.111Z,88.03
2023-02-03T15:40:03.747Z,88.50
2023-02-03T15:42:45.085Z,88.84
2023-02-03T15:45:23.557Z,88.84
2023-02-03T15:48:02.897Z,89.25
2023-02-03T15:51:02.746Z,88.85
2023-02-03T15:53:47.111Z,88.67
2023-02-03T15:56:26.448Z,88.92
2023-02-03T15:58:58.654Z,88.47
2023-02-03T16:01:26.643Z,88.27
2023-02-03T16:03:55.444Z,87.93
2023-02-03T16:06:28.159Z,87.86
2023-02-03T16:08:55.868Z,87.70
2023-02-03T16:11:28.599Z,87.26
2023-02-03T16:13:56.676Z,87.03
2023-02-03T16:16:30.252Z,86.81
2023-02-03T16:18:59.989Z,86.95
2023-02-03T16:21:36.148Z,86.69
2023-02-03T16:24:05.424Z,87.53
2023-02-03T16:26:32.786Z,86.75
2023-02-03T16:29:30.149Z,86.84
2023-02-03T16:32:15.527Z,87.33
2023-02-03T16:35:00.809Z,87.27
2023-02-03T16:37:49.657Z,86.98
2023-02-03T16:40:41.196Z,87.02
2023-02-03T16:43:34.137Z,87.36
2023-02-03T16:46:20.094Z,87.32
2023-02-03T16:49:05.596Z,87.58
2023-02-03T16:51:38.872Z,87.31
2023-02-03T16:54:05.880Z,87.51
2023-02-03T16:56:32.347Z,87.47
2023-02-03T16:58:58.710Z,87.15
2023-02-03T17:01:25.125Z,87.54
2023-02-03T17:03:51.482Z,87.75
2023-02-03T17:06:17.887Z,88.01
2023-02-03T17:08:44.240Z,88.16
2023-02-03T17:11:18.166Z,88.05
2023-02-03T17:13:44.616Z,88.21
2023-02-03T17:16:15.169Z,88.79
2023-02-03T17:18:41.625Z,88.72
2023-02-03T17:21:10.796Z,89.09
2023-02-03T17:23:38.076Z,89.43
2023-02-03T17:26:05.249Z,89.45
2023-02-03T17:28:32.275Z,89.24
2023-02-03T17:31:00.582Z,88.89
2023-02-03T17:33:28.557Z,88.89
2023-02-03T17:36:09.101Z,89.14
2023-02-03T17:55:08.247Z,87.82
2023-02-03T17:57:37.222Z,87.85
2023-02-03T18:00:04.866Z,87.69
2023-02-03T18:02:31.264Z,87.90
2023-02-03T18:04:57.722Z,87.85
2023-02-03T18:07:24.091Z,86.86
2023-02-03T18:09:50.537Z,86.35
2023-02-03T18:12:17.317Z,86.39
2023-02-03T18:14:43.661Z,86.38
2023-02-03T18:17:10.051Z,86.51
2023-02-03T18:19:36.562Z,86.36
2023-02-03T18:22:02.946Z,86.46
2023-02-03T18:24:30.514Z,86.41
2023-02-03T18:26:56.994Z,86.49
2023-02-03T18:29:24.268Z,86.46
2023-02-03T18:31:50.755Z,86.34
2023-02-03T18:34:17.251Z,86.72
2023-02-03T18:36:43.748Z,86.40
2023-02-03T18:39:12.369Z,86.11
2023-02-03T18:41:39.479Z,86.58
2023-02-03T18:44:05.939Z,86.16
2023-02-03T18:46:33.533Z,86.04
2023-02-03T18:49:00.057Z,86.15
2023-02-03T18:51:27.520Z,86.05
2023-02-03T18:53:59.068Z,85.60
2023-02-03T18:56:28.141Z,85.56
2023-02-03T18:58:55.012Z,85.75
2023-02-03T19:01:27.567Z,85.73
2023-02-03T19:03:56.204Z,85.85
2023-02-03T19:06:24.174Z,85.85
2023-02-03T19:08:51.485Z,85.82
2023-02-03T19:11:18.416Z,85.81
2023-02-03T19:13:45.112Z,85.72
2023-02-03T19:16:14.288Z,85.74
2023-02-03T19:18:40.976Z,85.80
2023-02-03T19:21:07.454Z,85.29
2023-02-03T19:23:34.096Z,85.69
2023-02-03T19:26:00.562Z,85.72
2023-02-03T19:28:30.826Z,86.30
2023-02-03T19:31:08.391Z,86.40
2023-02-03T19:33:36.030Z,86.71
2023-02-03T19:36:03.132Z,86.40
2023-02-03T19:38:29.526Z,86.40
2023-02-03T19:40:55.925Z,86.45
2023-02-03T19:43:22.421Z,86.36
2023-02-03T19:45:48.759Z,86.27
2023-02-03T19:48:15.133Z,86.28
2023-02-03T19:50:45.710Z,86.48
2023-02-03T19:53:16.217Z,86.43
2023-02-03T19:55:43.942Z,86.57
2023-02-03T19:58:11.748Z,86.66
2023-02-03T20:00:38.507Z,86.41
2023-02-03T20:03:05.634Z,86.72
2023-02-03T20:05:32.126Z,87.26
2023-02-03T20:07:58.548Z,87.13
2023-02-03T20:10:26.349Z,87.07
2023-02-03T20:12:53.876Z,87.36
2023-02-03T20:15:20.646Z,87.34
2023-02-03T20:17:47.106Z,87.77
2023-02-03T20:20:13.517Z,87.74
2023-02-03T20:22:39.952Z,87.73
2023-02-03T20:25:06.813Z,87.88
2023-02-03T20:27:33.304Z,87.64
2023-02-03T20:29:59.702Z,87.64
2023-02-03T20:32:26.114Z,87.59
2023-02-03T20:34:52.559Z,87.13
2023-02-03T20:37:18.903Z,87.36
2023-02-03T20:39:45.261Z,86.98
2023-02-03T20:42:16.738Z,87.07
2023-02-03T20:44:44.581Z,87.36
2023-02-03T20:47:19.495Z,87.17
2023-02-03T20:49:47.769Z,87.29
2023-02-03T20:52:19.831Z,86.86
2023-02-03T20:54:46.367Z,87.11
2023-02-03T20:57:18.470Z,87.49
2023-02-03T20:59:46.022Z,87.18
2023-02-03T21:02:48.047Z,87.30
2023-02-03T21:05:25.945Z,87.17
2023-02-03T21:07:52.351Z,87.00
2023-02-03T21:10:21.386Z,86.62
2023-02-03T21:12:48.501Z,86.94
2023-02-03T21:15:26.515Z,86.57
2023-02-03T21:17:53.165Z,86.52
2023-02-03T21:20:31.554Z,86.16
2023-02-03T21:22:58.552Z,85.80
2023-02-03T21:25:33.365Z,85.92
2023-02-03T21:28:00.569Z,85.41
2023-02-03T21:30:31.061Z,85.57
2023-02-03T21:32:59.107Z,85.20
2023-02-03T21:35:37.126Z,84.93
2023-02-03T21:38:26.066Z,84.51
2023-02-03T21:40:52.408Z,85.06
2023-02-03T21:43:19.492Z,84.07
2023-02-03T21:45:45.975Z,83.98
2023-02-03T21:48:38.724Z,83.42
2023-02-03T21:51:16.094Z,83.47
2023-02-03T21:53:50.853Z,83.31
2023-02-03T21:56:26.242Z,83.71
2023-02-03T21:58:58.327Z,83.00
2023-02-03T22:01:26.058Z,83.41
2023-02-03T22:03:54.742Z,83.18
2023-02-03T22:06:26.890Z,83.28
2023-02-03T22:08:56.010Z,83.61
2023-02-03T22:11:24.540Z,82.80
2023-02-03T22:13:51.553Z,82.64
2023-02-03T22:16:18.755Z,82.91
2023-02-03T22:18:46.618Z,82.77
2023-02-03T22:21:13.975Z,82.80
2023-02-03T22:23:40.949Z,82.46
2023-02-03T22:26:08.579Z,82.59
2023-02-03T22:28:35.313Z,82.97
2023-02-03T22:31:04.266Z,83.10
2023-02-03T22:33:31.964Z,83.03
2023-02-03T22:35:58.348Z,82.80
2023-02-03T22:38:25.247Z,82.96
2023-02-03T22:40:52.564Z,83.15
2023-02-03T22:43:19.093Z,82.84
2023-02-03T22:45:45.520Z,83.14
2023-02-03T22:48:12.019Z,82.18
2023-02-03T22:50:38.739Z,82.25
2023-02-03T22:53:05.932Z,82.34
2023-02-03T22:55:32.620Z,82.34
2023-02-03T22:57:59.193Z,82.19
2023-02-03T23:00:26.711Z,82.35
2023-02-03T23:02:53.607Z,82.40
2023-02-03T23:05:20.506Z,82.48
2023-02-03T23:07:47.704Z,82.52
2023-02-03T23:10:17.609Z,82.69
2023-02-03T23:12:44.522Z,82.30
2023-02-03T23:15:11.629Z,82.27
2023-02-03T23:17:38.503Z,82.54
2023-02-03T23:20:07.636Z,82.45
2023-02-03T23:22:34.066Z,82.17
2023-02-03T23:25:00.691Z,82.78
2023-02-03T23:27:27.245Z,82.83
2023-02-03T23:29:53.714Z,82.91
2023-02-03T23:32:20.122Z,83.07
2023-02-03T23:35:05.126Z,82.64
2023-02-03T23:37:31.645Z,82.69
2023-02-03T23:39:58.191Z,83.05
2023-02-03T23:42:24.575Z,83.10
2023-02-03T23:44:50.984Z,82.83
2023-02-03T23:47:17.460Z,82.06
2023-02-03T23:49:43.798Z,82.48
2023-02-03T23:52:10.159Z,82.65
2023-02-03T23:54:36.540Z,82.87
2023-02-03T23:57:04.700Z,82.58
2023-02-03T23:59:31.464Z,82.72
